NCAR-RAP Real-Time Weather Data

Output produced by METARs form (12 August 2020  18:14 UTC)
found at http://weather.rap.ucar.edu/surface/
 
KALW 121753Z 19014KT 10SM -RA OVC080 17/02 A3000 RMK AO2 SLP156 P0000 60000 T01670022 10189 20161 53025
KALW 121653Z 19011KT 10SM -RA OVC085 18/01 A2997 RMK AO2 RAB38 SLP142 P0000 T01780011
KALW 121553Z 20012KT 10SM FEW110 18/M01 A2994 RMK AO2 SLP132 T01831006
KALW 121453Z 21012KT 10SM CLR 18/00 A2993 RMK AO2 SLP127 T01780000 51016
KALW 121353Z 17007KT 10SM CLR 17/03 A2991 RMK AO2 SLP122 T01720033
KALW 121253Z AUTO 19008KT 10SM CLR 17/04 A2990 RMK AO2 SLP116 T01720039 TSNO
KALW 121153Z AUTO 20009KT 10SM CLR 17/04 A2988 RMK AO2 SLP109 T01720044 10217 20172 53011 TSNO
KALW 121053Z AUTO 15007KT 10SM CLR 18/04 A2986 RMK AO2 SLP103 T01830044 TSNO
KALW 120953Z AUTO 17013KT 10SM CLR 19/04 A2985 RMK AO2 SLP100 T01890039 TSNO
KALW 120853Z AUTO 18016G22KT 10SM CLR 20/04 A2984 RMK AO2 SLP097 T02000039 51010
KALW 120753Z AUTO 17013KT 10SM CLR 20/01 A2984 RMK AO2 SLP095 T02000011 403280189
KALW 120653Z AUTO 16011KT 10SM CLR 21/00 A2983 RMK AO2 SLP094 T02060000
KALW 120553Z AUTO 17014KT 10SM CLR 22/M01 A2981 RMK AO2 SLP086 T02171011 10317 20217 51025
KALW 120453Z AUTO 19017G24KT 10SM CLR 23/M02 A2981 RMK AO2 SLP085 T02331017
KALW 120353Z AUTO 20015KT 10SM CLR 26/M03 A2976 RMK AO2 SLP068 T02561028
KALW 120253Z AUTO 20014KT 10SM CLR 27/M01 A2973 RMK AO2 SLP059 T02721011 55006
KALW 120153Z AUTO 23013KT 10SM CLR 30/M02 A2972 RMK AO2 SLP056 T03001022
KALW 120053Z 21013KT 10SM CLR 32/M02 A2973 RMK AO2 SLP057 T03171017
KALW 112353Z 21008KT 10SM CLR 31/01 A2975 RMK AO2 SLP065 T03110006 10328 20272 56018